sensor_id;sensor_type;location;lat;lon;timestamp;P1;durP1;ratioP1;P2;durP2;ratioP2
7334;SDS011;3708;42.632;23.378;2023-05-14T00:01:21;5.30;;;3.13;;
7334;SDS011;3708;42.632;23.378;2023-05-14T00:03:49;7.97;;;3.60;;
7334;SDS011;3708;42.632;23.378;2023-05-14T00:06:16;3.50;;;2.93;;
7334;SDS011;3708;42.632;23.378;2023-05-14T00:08:43;4.63;;;3.10;;
7334;SDS011;3708;42.632;23.378;2023-05-14T00:11:10;4.97;;;3.50;;
7334;SDS011;3708;42.632;23.378;2023-05-14T00:13:38;3.50;;;2.80;;
7334;SDS011;3708;42.632;23.378;2023-05-14T00:16:05;4.80;;;2.80;;
7334;SDS011;3708;42.632;23.378;2023-05-14T00:18:32;5.43;;;3.27;;
7334;SDS011;3708;42.632;23.378;2023-05-14T00:21:00;3.53;;;3.00;;
7334;SDS011;3708;42.632;23.378;2023-05-14T00:23:27;7.33;;;3.13;;
7334;SDS011;3708;42.632;23.378;2023-05-14T00:25:54;4.20;;;2.97;;
7334;SDS011;3708;42.632;23.378;2023-05-14T00:28:20;3.50;;;2.90;;
7334;SDS011;3708;42.632;23.378;2023-05-14T00:30:47;7.10;;;3.33;;
7334;SDS011;3708;42.632;23.378;2023-05-14T00:33:14;5.47;;;3.23;;
7334;SDS011;3708;42.632;23.378;2023-05-14T00:35:41;7.37;;;3.10;;
7334;SDS011;3708;42.632;23.378;2023-05-14T00:38:09;3.70;;;3.10;;
7334;SDS011;3708;42.632;23.378;2023-05-14T00:40:41;4.20;;;3.30;;
7334;SDS011;3708;42.632;23.378;2023-05-14T00:43:10;5.83;;;2.87;;
7334;SDS011;3708;42.632;23.378;2023-05-14T00:45:37;4.43;;;3.77;;
7334;SDS011;3708;42.632;23.378;2023-05-14T00:48:04;3.57;;;2.83;;
7334;SDS011;3708;42.632;23.378;2023-05-14T00:50:31;4.17;;;2.90;;
7334;SDS011;3708;42.632;23.378;2023-05-14T00:52:58;7.07;;;3.30;;
7334;SDS011;3708;42.632;23.378;2023-05-14T00:55:27;3.67;;;3.00;;
7334;SDS011;3708;42.632;23.378;2023-05-14T00:57:55;4.53;;;2.70;;
7334;SDS011;3708;42.632;23.378;2023-05-14T01:00:24;5.50;;;3.13;;
7334;SDS011;3708;42.632;23.378;2023-05-14T01:02:51;3.90;;;3.00;;
7334;SDS011;3708;42.632;23.378;2023-05-14T01:05:18;2.73;;;2.47;;
7334;SDS011;3708;42.632;23.378;2023-05-14T01:07:47;4.63;;;2.83;;
7334;SDS011;3708;42.632;23.378;2023-05-14T01:10:20;3.47;;;3.03;;
7334;SDS011;3708;42.632;23.378;2023-05-14T01:12:54;3.77;;;2.77;;
7334;SDS011;3708;42.632;23.378;2023-05-14T01:15:27;5.37;;;2.93;;
7334;SDS011;3708;42.632;23.378;2023-05-14T01:17:58;3.27;;;2.90;;
7334;SDS011;3708;42.632;23.378;2023-05-14T01:20:27;4.57;;;2.90;;
7334;SDS011;3708;42.632;23.378;2023-05-14T01:22:55;4.50;;;2.93;;
7334;SDS011;3708;42.632;23.378;2023-05-14T01:25:21;3.03;;;2.57;;
7334;SDS011;3708;42.632;23.378;2023-05-14T01:27:50;4.83;;;2.87;;
7334;SDS011;3708;42.632;23.378;2023-05-14T01:30:25;4.00;;;3.13;;
7334;SDS011;3708;42.632;23.378;2023-05-14T01:32:58;4.53;;;2.37;;
7334;SDS011;3708;42.632;23.378;2023-05-14T01:35:28;4.97;;;3.03;;
7334;SDS011;3708;42.632;23.378;2023-05-14T01:37:57;4.23;;;2.93;;
7334;SDS011;3708;42.632;23.378;2023-05-14T01:40:26;3.33;;;2.70;;
7334;SDS011;3708;42.632;23.378;2023-05-14T01:42:53;9.57;;;2.47;;
7334;SDS011;3708;42.632;23.378;2023-05-14T01:45:20;5.00;;;2.70;;
7334;SDS011;3708;42.632;23.378;2023-05-14T01:47:48;5.60;;;2.97;;
7334;SDS011;3708;42.632;23.378;2023-05-14T01:50:15;5.53;;;2.70;;
7334;SDS011;3708;42.632;23.378;2023-05-14T01:52:42;7.67;;;2.87;;
7334;SDS011;3708;42.632;23.378;2023-05-14T01:55:10;3.00;;;2.70;;
7334;SDS011;3708;42.632;23.378;2023-05-14T01:57:37;5.33;;;3.03;;
7334;SDS011;3708;42.632;23.378;2023-05-14T02:00:04;5.20;;;2.53;;
7334;SDS011;3708;42.632;23.378;2023-05-14T02:02:32;4.10;;;2.40;;
7334;SDS011;3708;42.632;23.378;2023-05-14T02:04:58;4.03;;;2.60;;
7334;SDS011;3708;42.632;23.378;2023-05-14T02:07:25;3.90;;;2.70;;
7334;SDS011;3708;42.632;23.378;2023-05-14T02:09:52;3.27;;;2.80;;
7334;SDS011;3708;42.632;23.378;2023-05-14T02:12:20;7.47;;;2.53;;
7334;SDS011;3708;42.632;23.378;2023-05-14T02:14:47;4.30;;;2.63;;
7334;SDS011;3708;42.632;23.378;2023-05-14T02:17:14;3.60;;;3.03;;
7334;SDS011;3708;42.632;23.378;2023-05-14T02:19:41;3.67;;;2.83;;
7334;SDS011;3708;42.632;23.378;2023-05-14T02:22:08;9.73;;;2.90;;
7334;SDS011;3708;42.632;23.378;2023-05-14T02:24:35;6.10;;;3.27;;
7334;SDS011;3708;42.632;23.378;2023-05-14T02:27:02;5.10;;;2.73;;
7334;SDS011;3708;42.632;23.378;2023-05-14T02:29:30;4.13;;;2.73;;
7334;SDS011;3708;42.632;23.378;2023-05-14T02:31:57;3.93;;;2.70;;
7334;SDS011;3708;42.632;23.378;2023-05-14T02:34:24;3.93;;;2.90;;
7334;SDS011;3708;42.632;23.378;2023-05-14T02:36:51;5.20;;;2.77;;
7334;SDS011;3708;42.632;23.378;2023-05-14T02:39:17;3.97;;;2.77;;
7334;SDS011;3708;42.632;23.378;2023-05-14T02:41:44;3.47;;;2.83;;
7334;SDS011;3708;42.632;23.378;2023-05-14T02:44:11;5.67;;;2.90;;
7334;SDS011;3708;42.632;23.378;2023-05-14T02:46:39;3.43;;;3.13;;
7334;SDS011;3708;42.632;23.378;2023-05-14T02:49:06;3.97;;;2.90;;
7334;SDS011;3708;42.632;23.378;2023-05-14T02:51:33;3.47;;;2.70;;
7334;SDS011;3708;42.632;23.378;2023-05-14T02:53:59;6.30;;;3.00;;
7334;SDS011;3708;42.632;23.378;2023-05-14T02:56:26;6.40;;;2.90;;
7334;SDS011;3708;42.632;23.378;2023-05-14T02:58:53;3.70;;;2.77;;
7334;SDS011;3708;42.632;23.378;2023-05-14T03:01:20;7.20;;;3.33;;
7334;SDS011;3708;42.632;23.378;2023-05-14T03:03:48;4.43;;;2.93;;
7334;SDS011;3708;42.632;23.378;2023-05-14T03:06:15;3.90;;;3.07;;
7334;SDS011;3708;42.632;23.378;2023-05-14T03:08:41;3.60;;;3.27;;
7334;SDS011;3708;42.632;23.378;2023-05-14T03:11:08;3.27;;;2.83;;
7334;SDS011;3708;42.632;23.378;2023-05-14T03:13:35;3.70;;;2.70;;
7334;SDS011;3708;42.632;23.378;2023-05-14T03:16:02;4.43;;;2.70;;
7334;SDS011;3708;42.632;23.378;2023-05-14T03:18:29;3.87;;;3.13;;
7334;SDS011;3708;42.632;23.378;2023-05-14T03:20:58;4.10;;;3.70;;
7334;SDS011;3708;42.632;23.378;2023-05-14T03:23:25;5.13;;;3.60;;
7334;SDS011;3708;42.632;23.378;2023-05-14T03:25:52;7.77;;;3.33;;
7334;SDS011;3708;42.632;23.378;2023-05-14T03:28:19;3.30;;;2.90;;
7334;SDS011;3708;42.632;23.378;2023-05-14T03:30:46;6.47;;;3.30;;
7334;SDS011;3708;42.632;23.378;2023-05-14T03:33:12;4.00;;;3.00;;
7334;SDS011;3708;42.632;23.378;2023-05-14T03:35:41;3.63;;;2.90;;
7334;SDS011;3708;42.632;23.378;2023-05-14T03:38:09;3.60;;;3.20;;
7334;SDS011;3708;42.632;23.378;2023-05-14T03:40:36;4.27;;;3.53;;
7334;SDS011;3708;42.632;23.378;2023-05-14T03:43:02;5.40;;;3.00;;
7334;SDS011;3708;42.632;23.378;2023-05-14T03:45:29;4.30;;;3.70;;
7334;SDS011;3708;42.632;23.378;2023-05-14T03:47:57;4.00;;;3.60;;
7334;SDS011;3708;42.632;23.378;2023-05-14T03:50:24;4.23;;;3.23;;
7334;SDS011;3708;42.632;23.378;2023-05-14T03:52:50;5.13;;;3.20;;
7334;SDS011;3708;42.632;23.378;2023-05-14T03:55:19;5.30;;;3.60;;
7334;SDS011;3708;42.632;23.378;2023-05-14T03:57:46;3.93;;;3.37;;
7334;SDS011;3708;42.632;23.378;2023-05-14T04:00:13;4.33;;;3.17;;
7334;SDS011;3708;42.632;23.378;2023-05-14T04:02:40;3.63;;;2.97;;
7334;SDS011;3708;42.632;23.378;2023-05-14T04:05:08;4.07;;;2.83;;
7334;SDS011;3708;42.632;23.378;2023-05-14T04:07:34;4.60;;;3.10;;
7334;SDS011;3708;42.632;23.378;2023-05-14T04:10:01;4.40;;;3.27;;
7334;SDS011;3708;42.632;23.378;2023-05-14T04:12:30;3.30;;;2.87;;
7334;SDS011;3708;42.632;23.378;2023-05-14T04:14:57;4.40;;;3.17;;
7334;SDS011;3708;42.632;23.378;2023-05-14T04:17:24;4.13;;;3.00;;
7334;SDS011;3708;42.632;23.378;2023-05-14T04:19:50;4.17;;;3.27;;
7334;SDS011;3708;42.632;23.378;2023-05-14T04:22:17;7.50;;;3.17;;
7334;SDS011;3708;42.632;23.378;2023-05-14T04:24:44;5.53;;;3.33;;
7334;SDS011;3708;42.632;23.378;2023-05-14T04:27:12;4.60;;;3.50;;
7334;SDS011;3708;42.632;23.378;2023-05-14T04:29:46;5.27;;;3.50;;
7334;SDS011;3708;42.632;23.378;2023-05-14T04:32:13;5.40;;;3.00;;
7334;SDS011;3708;42.632;23.378;2023-05-14T04:34:40;6.17;;;2.93;;
7334;SDS011;3708;42.632;23.378;2023-05-14T04:37:07;4.67;;;2.83;;
7334;SDS011;3708;42.632;23.378;2023-05-14T04:39:34;9.40;;;3.20;;
7334;SDS011;3708;42.632;23.378;2023-05-14T04:42:01;5.23;;;2.90;;
7334;SDS011;3708;42.632;23.378;2023-05-14T04:44:28;4.03;;;3.20;;
7334;SDS011;3708;42.632;23.378;2023-05-14T04:46:56;2.87;;;2.57;;
7334;SDS011;3708;42.632;23.378;2023-05-14T04:49:22;4.13;;;3.10;;
7334;SDS011;3708;42.632;23.378;2023-05-14T04:51:49;4.77;;;3.10;;
7334;SDS011;3708;42.632;23.378;2023-05-14T04:54:16;4.43;;;3.20;;
7334;SDS011;3708;42.632;23.378;2023-05-14T04:56:43;5.73;;;3.30;;
7334;SDS011;3708;42.632;23.378;2023-05-14T04:59:10;5.00;;;3.20;;
7334;SDS011;3708;42.632;23.378;2023-05-14T05:01:36;6.53;;;3.83;;
7334;SDS011;3708;42.632;23.378;2023-05-14T05:04:05;6.43;;;3.07;;
7334;SDS011;3708;42.632;23.378;2023-05-14T05:06:31;5.37;;;3.57;;
7334;SDS011;3708;42.632;23.378;2023-05-14T05:08:58;4.67;;;3.43;;
7334;SDS011;3708;42.632;23.378;2023-05-14T05:11:25;8.03;;;3.00;;
7334;SDS011;3708;42.632;23.378;2023-05-14T05:13:52;5.70;;;3.77;;
7334;SDS011;3708;42.632;23.378;2023-05-14T05:16:18;5.27;;;3.43;;
7334;SDS011;3708;42.632;23.378;2023-05-14T05:18:45;5.23;;;3.70;;
7334;SDS011;3708;42.632;23.378;2023-05-14T05:21:13;4.03;;;3.57;;
7334;SDS011;3708;42.632;23.378;2023-05-14T05:23:40;5.17;;;3.87;;
7334;SDS011;3708;42.632;23.378;2023-05-14T05:26:07;4.83;;;3.87;;
7334;SDS011;3708;42.632;23.378;2023-05-14T05:28:34;6.40;;;3.90;;
7334;SDS011;3708;42.632;23.378;2023-05-14T05:31:00;4.60;;;4.10;;
7334;SDS011;3708;42.632;23.378;2023-05-14T05:33:27;6.13;;;3.87;;
7334;SDS011;3708;42.632;23.378;2023-05-14T05:35:54;4.97;;;3.87;;
7334;SDS011;3708;42.632;23.378;2023-05-14T05:38:22;5.80;;;4.17;;
7334;SDS011;3708;42.632;23.378;2023-05-14T05:40:49;6.03;;;3.90;;
7334;SDS011;3708;42.632;23.378;2023-05-14T05:43:16;4.97;;;4.07;;
7334;SDS011;3708;42.632;23.378;2023-05-14T05:45:43;8.10;;;4.17;;
7334;SDS011;3708;42.632;23.378;2023-05-14T05:48:10;6.47;;;4.20;;
7334;SDS011;3708;42.632;23.378;2023-05-14T05:50:37;4.80;;;4.30;;
7334;SDS011;3708;42.632;23.378;2023-05-14T05:53:04;8.50;;;4.80;;
7334;SDS011;3708;42.632;23.378;2023-05-14T05:55:32;6.40;;;4.53;;
7334;SDS011;3708;42.632;23.378;2023-05-14T05:57:59;5.23;;;4.40;;
7334;SDS011;3708;42.632;23.378;2023-05-14T06:00:26;8.40;;;5.23;;
7334;SDS011;3708;42.632;23.378;2023-05-14T06:02:53;6.73;;;4.83;;
7334;SDS011;3708;42.632;23.378;2023-05-14T06:05:20;7.83;;;4.50;;
7334;SDS011;3708;42.632;23.378;2023-05-14T06:07:47;9.43;;;4.70;;
7334;SDS011;3708;42.632;23.378;2023-05-14T06:10:13;6.17;;;4.43;;
7334;SDS011;3708;42.632;23.378;2023-05-14T06:12:42;5.40;;;4.13;;
7334;SDS011;3708;42.632;23.378;2023-05-14T06:15:09;5.53;;;5.00;;
7334;SDS011;3708;42.632;23.378;2023-05-14T06:17:36;4.67;;;4.17;;
7334;SDS011;3708;42.632;23.378;2023-05-14T06:20:03;4.97;;;4.07;;
7334;SDS011;3708;42.632;23.378;2023-05-14T06:22:32;7.20;;;4.63;;
7334;SDS011;3708;42.632;23.378;2023-05-14T06:24:58;6.50;;;4.50;;
7334;SDS011;3708;42.632;23.378;2023-05-14T06:27:25;5.23;;;4.10;;
7334;SDS011;3708;42.632;23.378;2023-05-14T06:29:53;4.93;;;4.17;;
7334;SDS011;3708;42.632;23.378;2023-05-14T06:32:20;8.23;;;5.10;;
7334;SDS011;3708;42.632;23.378;2023-05-14T06:34:47;5.53;;;4.67;;
7334;SDS011;3708;42.632;23.378;2023-05-14T06:37:14;5.93;;;4.90;;
7334;SDS011;3708;42.632;23.378;2023-05-14T06:39:41;5.60;;;4.23;;
7334;SDS011;3708;42.632;23.378;2023-05-14T06:42:12;6.30;;;4.57;;
7334;SDS011;3708;42.632;23.378;2023-05-14T06:44:39;7.73;;;5.20;;
7334;SDS011;3708;42.632;23.378;2023-05-14T06:47:07;12.77;;;5.70;;
7334;SDS011;3708;42.632;23.378;2023-05-14T06:49:34;7.63;;;4.83;;
7334;SDS011;3708;42.632;23.378;2023-05-14T06:52:01;7.40;;;4.90;;
7334;SDS011;3708;42.632;23.378;2023-05-14T06:54:28;7.13;;;5.00;;
7334;SDS011;3708;42.632;23.378;2023-05-14T06:56:55;6.67;;;5.07;;
7334;SDS011;3708;42.632;23.378;2023-05-14T06:59:22;5.73;;;4.90;;
7334;SDS011;3708;42.632;23.378;2023-05-14T07:01:49;9.27;;;5.93;;
7334;SDS011;3708;42.632;23.378;2023-05-14T07:04:17;7.50;;;4.80;;
7334;SDS011;3708;42.632;23.378;2023-05-14T07:06:44;6.07;;;4.80;;
7334;SDS011;3708;42.632;23.378;2023-05-14T07:09:11;5.97;;;4.80;;
7334;SDS011;3708;42.632;23.378;2023-05-14T07:11:38;7.10;;;5.23;;
7334;SDS011;3708;42.632;23.378;2023-05-14T07:14:05;6.03;;;4.80;;
7334;SDS011;3708;42.632;23.378;2023-05-14T07:16:32;8.50;;;5.77;;
7334;SDS011;3708;42.632;23.378;2023-05-14T07:18:58;10.07;;;4.97;;
7334;SDS011;3708;42.632;23.378;2023-05-14T07:21:26;9.53;;;5.53;;
7334;SDS011;3708;42.632;23.378;2023-05-14T07:23:53;7.17;;;5.33;;
7334;SDS011;3708;42.632;23.378;2023-05-14T07:26:20;6.80;;;5.17;;
7334;SDS011;3708;42.632;23.378;2023-05-14T07:28:48;12.43;;;5.60;;
7334;SDS011;3708;42.632;23.378;2023-05-14T07:31:15;6.13;;;4.63;;
7334;SDS011;3708;42.632;23.378;2023-05-14T07:33:41;8.17;;;5.03;;
7334;SDS011;3708;42.632;23.378;2023-05-14T07:36:08;6.37;;;5.60;;
7334;SDS011;3708;42.632;23.378;2023-05-14T07:38:36;11.87;;;6.60;;
7334;SDS011;3708;42.632;23.378;2023-05-14T07:41:03;10.30;;;6.63;;
7334;SDS011;3708;42.632;23.378;2023-05-14T07:43:30;6.83;;;5.97;;
7334;SDS011;3708;42.632;23.378;2023-05-14T07:45:57;9.43;;;6.13;;
7334;SDS011;3708;42.632;23.378;2023-05-14T07:48:24;7.77;;;5.67;;
7334;SDS011;3708;42.632;23.378;2023-05-14T07:50:50;7.23;;;5.33;;
7334;SDS011;3708;42.632;23.378;2023-05-14T07:53:17;7.53;;;5.67;;
7334;SDS011;3708;42.632;23.378;2023-05-14T07:55:46;8.93;;;5.77;;
7334;SDS011;3708;42.632;23.378;2023-05-14T07:58:14;10.93;;;5.90;;
7334;SDS011;3708;42.632;23.378;2023-05-14T08:00:41;7.97;;;5.83;;
7334;SDS011;3708;42.632;23.378;2023-05-14T08:03:08;8.23;;;6.23;;
7334;SDS011;3708;42.632;23.378;2023-05-14T08:05:34;9.43;;;5.60;;
7334;SDS011;3708;42.632;23.378;2023-05-14T08:08:01;9.60;;;6.00;;
7334;SDS011;3708;42.632;23.378;2023-05-14T08:10:28;8.03;;;5.97;;
7334;SDS011;3708;42.632;23.378;2023-05-14T08:12:57;6.47;;;5.70;;
7334;SDS011;3708;42.632;23.378;2023-05-14T08:15:23;7.63;;;5.77;;
7334;SDS011;3708;42.632;23.378;2023-05-14T08:17:50;6.40;;;5.27;;
7334;SDS011;3708;42.632;23.378;2023-05-14T08:20:17;10.93;;;5.17;;
7334;SDS011;3708;42.632;23.378;2023-05-14T08:22:44;7.20;;;5.17;;
7334;SDS011;3708;42.632;23.378;2023-05-14T08:25:11;8.30;;;5.43;;
7334;SDS011;3708;42.632;23.378;2023-05-14T08:27:38;5.13;;;4.63;;
7334;SDS011;3708;42.632;23.378;2023-05-14T08:30:07;6.03;;;4.97;;
7334;SDS011;3708;42.632;23.378;2023-05-14T08:32:34;5.80;;;4.90;;
7334;SDS011;3708;42.632;23.378;2023-05-14T08:35:02;6.43;;;5.00;;
7334;SDS011;3708;42.632;23.378;2023-05-14T08:37:29;7.07;;;4.77;;
7334;SDS011;3708;42.632;23.378;2023-05-14T08:39:56;8.23;;;5.50;;
7334;SDS011;3708;42.632;23.378;2023-05-14T08:42:23;8.10;;;5.90;;
7334;SDS011;3708;42.632;23.378;2023-05-14T08:45:12;6.37;;;5.37;;
7334;SDS011;3708;42.632;23.378;2023-05-14T08:47:43;6.30;;;4.93;;
7334;SDS011;3708;42.632;23.378;2023-05-14T08:50:14;5.57;;;4.80;;
7334;SDS011;3708;42.632;23.378;2023-05-14T08:52:41;6.03;;;5.10;;
7334;SDS011;3708;42.632;23.378;2023-05-14T08:55:08;8.50;;;5.93;;
7334;SDS011;3708;42.632;23.378;2023-05-14T08:57:37;9.73;;;5.80;;
7334;SDS011;3708;42.632;23.378;2023-05-14T09:00:04;8.33;;;5.43;;
7334;SDS011;3708;42.632;23.378;2023-05-14T09:02:34;6.90;;;5.20;;
7334;SDS011;3708;42.632;23.378;2023-05-14T09:05:02;5.73;;;4.47;;
7334;SDS011;3708;42.632;23.378;2023-05-14T09:07:29;5.10;;;4.60;;
7334;SDS011;3708;42.632;23.378;2023-05-14T09:09:56;6.87;;;4.30;;
7334;SDS011;3708;42.632;23.378;2023-05-14T09:12:23;10.47;;;5.43;;
7334;SDS011;3708;42.632;23.378;2023-05-14T09:14:50;8.13;;;5.90;;
7334;SDS011;3708;42.632;23.378;2023-05-14T09:17:17;5.60;;;5.00;;
7334;SDS011;3708;42.632;23.378;2023-05-14T09:19:46;10.30;;;5.20;;
7334;SDS011;3708;42.632;23.378;2023-05-14T09:22:14;7.77;;;4.90;;
7334;SDS011;3708;42.632;23.378;2023-05-14T09:24:42;5.23;;;4.60;;
7334;SDS011;3708;42.632;23.378;2023-05-14T09:27:14;6.17;;;4.40;;
7334;SDS011;3708;42.632;23.378;2023-05-14T09:29:44;6.37;;;4.90;;
7334;SDS011;3708;42.632;23.378;2023-05-14T09:32:10;8.80;;;5.83;;
7334;SDS011;3708;42.632;23.378;2023-05-14T09:34:38;4.30;;;3.90;;
7334;SDS011;3708;42.632;23.378;2023-05-14T09:37:07;6.00;;;4.60;;
7334;SDS011;3708;42.632;23.378;2023-05-14T09:39:35;7.00;;;4.37;;
7334;SDS011;3708;42.632;23.378;2023-05-14T09:42:04;5.23;;;4.63;;
7334;SDS011;3708;42.632;23.378;2023-05-14T09:44:31;5.27;;;4.10;;
7334;SDS011;3708;42.632;23.378;2023-05-14T09:47:00;6.53;;;5.37;;
7334;SDS011;3708;42.632;23.378;2023-05-14T09:49:27;6.13;;;4.50;;
7334;SDS011;3708;42.632;23.378;2023-05-14T09:51:53;5.07;;;4.23;;
7334;SDS011;3708;42.632;23.378;2023-05-14T09:54:23;6.67;;;4.00;;
7334;SDS011;3708;42.632;23.378;2023-05-14T09:56:51;4.77;;;4.20;;
7334;SDS011;3708;42.632;23.378;2023-05-14T09:59:18;4.13;;;3.73;;
7334;SDS011;3708;42.632;23.378;2023-05-14T10:01:45;5.40;;;3.70;;
7334;SDS011;3708;42.632;23.378;2023-05-14T10:04:12;5.13;;;3.97;;
7334;SDS011;3708;42.632;23.378;2023-05-14T10:06:40;7.40;;;4.33;;
7334;SDS011;3708;42.632;23.378;2023-05-14T10:09:12;4.77;;;3.80;;
7334;SDS011;3708;42.632;23.378;2023-05-14T10:11:41;4.00;;;3.50;;
7334;SDS011;3708;42.632;23.378;2023-05-14T10:14:10;3.83;;;3.53;;
7334;SDS011;3708;42.632;23.378;2023-05-14T10:16:43;4.83;;;4.30;;
7334;SDS011;3708;42.632;23.378;2023-05-14T10:19:14;4.53;;;3.87;;
7334;SDS011;3708;42.632;23.378;2023-05-14T10:21:43;6.23;;;4.27;;
7334;SDS011;3708;42.632;23.378;2023-05-14T10:24:13;7.83;;;4.37;;
7334;SDS011;3708;42.632;23.378;2023-05-14T10:26:42;7.23;;;5.10;;
7334;SDS011;3708;42.632;23.378;2023-05-14T10:29:10;4.80;;;4.30;;
7334;SDS011;3708;42.632;23.378;2023-05-14T10:31:48;8.57;;;5.80;;
7334;SDS011;3708;42.632;23.378;2023-05-14T10:34:31;8.73;;;5.70;;
7334;SDS011;3708;42.632;23.378;2023-05-14T10:37:01;5.60;;;4.87;;
7334;SDS011;3708;42.632;23.378;2023-05-14T10:39:39;8.60;;;5.60;;
7334;SDS011;3708;42.632;23.378;2023-05-14T10:42:09;8.03;;;4.77;;
7334;SDS011;3708;42.632;23.378;2023-05-14T10:44:38;6.57;;;5.63;;
7334;SDS011;3708;42.632;23.378;2023-05-14T10:47:11;10.13;;;5.83;;
7334;SDS011;3708;42.632;23.378;2023-05-14T10:49:38;8.53;;;5.50;;
7334;SDS011;3708;42.632;23.378;2023-05-14T10:52:07;6.27;;;4.80;;
7334;SDS011;3708;42.632;23.378;2023-05-14T10:54:34;10.10;;;5.73;;
7334;SDS011;3708;42.632;23.378;2023-05-14T10:57:02;12.43;;;8.13;;
7334;SDS011;3708;42.632;23.378;2023-05-14T10:59:30;9.13;;;6.20;;
7334;SDS011;3708;42.632;23.378;2023-05-14T11:01:59;7.00;;;5.33;;
7334;SDS011;3708;42.632;23.378;2023-05-14T11:04:26;7.10;;;4.83;;
7334;SDS011;3708;42.632;23.378;2023-05-14T11:06:53;7.37;;;5.30;;
7334;SDS011;3708;42.632;23.378;2023-05-14T11:09:21;5.83;;;4.33;;
7334;SDS011;3708;42.632;23.378;2023-05-14T11:11:49;6.00;;;4.60;;
7334;SDS011;3708;42.632;23.378;2023-05-14T11:14:16;9.30;;;4.50;;
7334;SDS011;3708;42.632;23.378;2023-05-14T11:16:44;6.03;;;4.90;;
7334;SDS011;3708;42.632;23.378;2023-05-14T11:19:12;6.80;;;5.63;;
7334;SDS011;3708;42.632;23.378;2023-05-14T11:21:39;6.17;;;4.83;;
7334;SDS011;3708;42.632;23.378;2023-05-14T11:24:06;6.20;;;5.60;;
7334;SDS011;3708;42.632;23.378;2023-05-14T11:26:33;14.43;;;8.20;;
7334;SDS011;3708;42.632;23.378;2023-05-14T11:29:01;6.43;;;4.90;;
7334;SDS011;3708;42.632;23.378;2023-05-14T11:31:27;7.50;;;5.17;;
7334;SDS011;3708;42.632;23.378;2023-05-14T11:33:56;13.83;;;8.97;;
7334;SDS011;3708;42.632;23.378;2023-05-14T11:36:23;10.27;;;6.67;;
7334;SDS011;3708;42.632;23.378;2023-05-14T11:38:49;5.63;;;5.03;;
7334;SDS011;3708;42.632;23.378;2023-05-14T11:41:16;6.00;;;5.23;;
7334;SDS011;3708;42.632;23.378;2023-05-14T11:43:45;5.63;;;4.90;;
7334;SDS011;3708;42.632;23.378;2023-05-14T11:46:15;6.83;;;5.27;;
7334;SDS011;3708;42.632;23.378;2023-05-14T11:48:43;6.90;;;5.97;;
7334;SDS011;3708;42.632;23.378;2023-05-14T11:51:11;6.00;;;5.40;;
7334;SDS011;3708;42.632;23.378;2023-05-14T11:53:38;5.77;;;4.50;;
7334;SDS011;3708;42.632;23.378;2023-05-14T11:56:05;5.03;;;4.57;;
7334;SDS011;3708;42.632;23.378;2023-05-14T11:58:32;5.37;;;3.83;;
7334;SDS011;3708;42.632;23.378;2023-05-14T12:00:58;4.80;;;4.30;;
7334;SDS011;3708;42.632;23.378;2023-05-14T12:03:25;4.47;;;4.07;;
7334;SDS011;3708;42.632;23.378;2023-05-14T12:05:54;5.40;;;4.73;;
7334;SDS011;3708;42.632;23.378;2023-05-14T12:08:25;5.53;;;4.93;;
7334;SDS011;3708;42.632;23.378;2023-05-14T12:10:53;5.30;;;4.73;;
7334;SDS011;3708;42.632;23.378;2023-05-14T12:13:20;5.50;;;4.30;;
7334;SDS011;3708;42.632;23.378;2023-05-14T12:15:52;5.63;;;5.00;;
7334;SDS011;3708;42.632;23.378;2023-05-14T12:18:20;4.83;;;4.33;;
7334;SDS011;3708;42.632;23.378;2023-05-14T12:20:47;4.57;;;4.10;;
7334;SDS011;3708;42.632;23.378;2023-05-14T12:23:15;5.50;;;4.17;;
7334;SDS011;3708;42.632;23.378;2023-05-14T12:25:49;4.43;;;3.80;;
7334;SDS011;3708;42.632;23.378;2023-05-14T12:28:17;4.20;;;3.80;;
7334;SDS011;3708;42.632;23.378;2023-05-14T12:30:44;5.50;;;3.87;;
7334;SDS011;3708;42.632;23.378;2023-05-14T12:33:11;6.23;;;4.83;;
7334;SDS011;3708;42.632;23.378;2023-05-14T12:35:38;5.80;;;4.60;;
7334;SDS011;3708;42.632;23.378;2023-05-14T12:38:05;4.40;;;3.83;;
7334;SDS011;3708;42.632;23.378;2023-05-14T12:40:32;7.80;;;4.43;;
7334;SDS011;3708;42.632;23.378;2023-05-14T12:43:00;6.10;;;4.90;;
7334;SDS011;3708;42.632;23.378;2023-05-14T12:45:28;12.40;;;4.70;;
7334;SDS011;3708;42.632;23.378;2023-05-14T12:47:55;5.23;;;4.60;;
7334;SDS011;3708;42.632;23.378;2023-05-14T12:50:22;5.87;;;5.27;;
7334;SDS011;3708;42.632;23.378;2023-05-14T12:52:49;5.70;;;5.10;;
7334;SDS011;3708;42.632;23.378;2023-05-14T12:55:16;6.90;;;6.13;;
7334;SDS011;3708;42.632;23.378;2023-05-14T12:57:42;7.03;;;6.33;;
7334;SDS011;3708;42.632;23.378;2023-05-14T13:00:11;7.33;;;5.80;;
7334;SDS011;3708;42.632;23.378;2023-05-14T13:02:39;6.47;;;5.87;;
7334;SDS011;3708;42.632;23.378;2023-05-14T13:05:06;7.80;;;7.00;;
7334;SDS011;3708;42.632;23.378;2023-05-14T13:07:33;9.67;;;7.73;;
7334;SDS011;3708;42.632;23.378;2023-05-14T13:10:00;8.00;;;6.60;;
7334;SDS011;3708;42.632;23.378;2023-05-14T13:12:29;8.10;;;7.30;;
7334;SDS011;3708;42.632;23.378;2023-05-14T13:14:56;9.43;;;8.07;;
7334;SDS011;3708;42.632;23.378;2023-05-14T13:17:24;8.03;;;7.23;;
7334;SDS011;3708;42.632;23.378;2023-05-14T13:19:51;8.33;;;7.53;;
7334;SDS011;3708;42.632;23.378;2023-05-14T13:22:18;9.50;;;8.27;;
7334;SDS011;3708;42.632;23.378;2023-05-14T13:24:45;9.50;;;8.33;;
7334;SDS011;3708;42.632;23.378;2023-05-14T13:27:11;11.30;;;8.00;;
7334;SDS011;3708;42.632;23.378;2023-05-14T13:29:38;9.90;;;7.77;;
7334;SDS011;3708;42.632;23.378;2023-05-14T13:32:05;9.90;;;8.87;;
7334;SDS011;3708;42.632;23.378;2023-05-14T13:34:34;10.43;;;9.00;;
7334;SDS011;3708;42.632;23.378;2023-05-14T13:37:01;9.90;;;8.87;;
7334;SDS011;3708;42.632;23.378;2023-05-14T13:39:28;9.23;;;8.20;;
7334;SDS011;3708;42.632;23.378;2023-05-14T13:41:54;9.80;;;8.80;;
7334;SDS011;3708;42.632;23.378;2023-05-14T13:44:22;10.90;;;9.57;;
7334;SDS011;3708;42.632;23.378;2023-05-14T13:46:48;12.63;;;9.77;;
7334;SDS011;3708;42.632;23.378;2023-05-14T13:49:15;11.27;;;9.60;;
7334;SDS011;3708;42.632;23.378;2023-05-14T13:51:43;10.93;;;9.83;;
7334;SDS011;3708;42.632;23.378;2023-05-14T13:54:10;10.80;;;9.70;;
7334;SDS011;3708;42.632;23.378;2023-05-14T13:56:37;11.33;;;10.10;;
7334;SDS011;3708;42.632;23.378;2023-05-14T13:59:04;11.73;;;10.47;;
7334;SDS011;3708;42.632;23.378;2023-05-14T14:01:31;13.87;;;10.53;;
7334;SDS011;3708;42.632;23.378;2023-05-14T14:03:57;10.50;;;9.40;;
7334;SDS011;3708;42.632;23.378;2023-05-14T14:06:24;13.63;;;9.63;;
7334;SDS011;3708;42.632;23.378;2023-05-14T14:08:53;11.17;;;9.70;;
7334;SDS011;3708;42.632;23.378;2023-05-14T14:11:20;9.50;;;8.53;;
7334;SDS011;3708;42.632;23.378;2023-05-14T14:13:47;11.40;;;9.20;;
7334;SDS011;3708;42.632;23.378;2023-05-14T14:16:14;10.47;;;9.30;;
7334;SDS011;3708;42.632;23.378;2023-05-14T14:18:41;10.17;;;9.00;;
7334;SDS011;3708;42.632;23.378;2023-05-14T14:21:08;10.20;;;9.20;;
7334;SDS011;3708;42.632;23.378;2023-05-14T14:23:34;10.87;;;9.13;;
7334;SDS011;3708;42.632;23.378;2023-05-14T14:26:03;9.83;;;8.83;;
7334;SDS011;3708;42.632;23.378;2023-05-14T14:28:30;10.37;;;9.27;;
7334;SDS011;3708;42.632;23.378;2023-05-14T14:30:56;11.03;;;9.60;;
7334;SDS011;3708;42.632;23.378;2023-05-14T14:33:23;12.00;;;9.43;;
7334;SDS011;3708;42.632;23.378;2023-05-14T14:35:51;9.90;;;8.90;;
7334;SDS011;3708;42.632;23.378;2023-05-14T14:38:17;9.67;;;8.70;;
7334;SDS011;3708;42.632;23.378;2023-05-14T14:40:44;10.43;;;8.70;;
7334;SDS011;3708;42.632;23.378;2023-05-14T14:43:13;9.80;;;8.80;;
7334;SDS011;3708;42.632;23.378;2023-05-14T14:45:40;9.90;;;8.23;;
7334;SDS011;3708;42.632;23.378;2023-05-14T14:50:52;13.30;;;8.53;;
7334;SDS011;3708;42.632;23.378;2023-05-14T14:53:19;9.77;;;8.63;;
7334;SDS011;3708;42.632;23.378;2023-05-14T14:55:46;9.23;;;8.33;;
7334;SDS011;3708;42.632;23.378;2023-05-14T14:58:14;9.57;;;8.57;;
7334;SDS011;3708;42.632;23.378;2023-05-14T15:00:41;9.80;;;8.80;;
7334;SDS011;3708;42.632;23.378;2023-05-14T15:03:09;10.10;;;9.10;;
7334;SDS011;3708;42.632;23.378;2023-05-14T15:05:36;9.17;;;8.27;;